Eastport Municipal Airport (EPM)
Eastport, ME
Field Elevation: 45
Lat: 44°54.60N  Long: 67°00.76W
CTAF/Unicom Freq: 122.8000
   
     For Weather-by-Phone, call 207-853-0682
Weather Advisories
2021-05-08   13:17 Z
Altimeter 29.83" Hg
Wind 060° @ 7 KT
Gusts 15 KT
Visibility --
Temperature 6° C (43° F)
Dewpoint 1° C (34° F)
Relative Humidity 73%
Density Altitude --
Condensation Altitude 2,500 feet
Wind Chill: 3° C (37° F)
Wind and Runways
Indicated Runway = 15
Headwind = 0 kt
Crosswind = 7 kt
History
 
 
 
More Info
NOAA Forecast
 
 
About Us
Belfort Instrument
 
 
FAA Disclaimer: The data displayed is for advisory purposes only and is not to be used for flight planning or operations. For official data, please call 207-853-0682 to hear the current automated AWOS voice message.
  METAR EPM 081317Z AUTO 06007G15KT 06/01 A2983